Time;durP1;ratioP1;P1;durP2;ratioP2;P2;SDS_P1;SDS_P2;PMS_P1;PMS_P2;Temp;Humidity;BMP_temperature;BMP_pressure;BME280_temperature;BME280_humidity;BME280_pressure;Samples;Min_cycle;Max_cycle;Signal;HPM_P1;HPM_P2
2022/09/22 00:00:35;;;;;;;3.95;2.90;;;;;;;15.46;58.25;102199.34;5050432;27;98402;-68
2022/09/22 00:03:02;;;;;;;6.00;3.08;;;;;;;15.58;57.95;102194.56;5049116;27;99228;-68
2022/09/22 00:05:30;;;;;;;5.95;2.95;;;;;;;15.54;57.42;102189.34;5051254;27;96891;-69
2022/09/22 00:07:56;;;;;;;5.68;3.10;;;;;;;15.56;58.05;102191.09;5051360;27;97009;-68
2022/09/22 00:10:22;;;;;;;5.50;2.58;;;;;;;15.29;58.76;102188.38;5053486;27;98819;-68
2022/09/22 00:12:53;;;;;;;6.18;3.20;;;;;;;15.31;58.65;102189.19;5051761;27;98494;-68
2022/09/22 00:15:19;;;;;;;6.35;3.15;;;;;;;15.41;58.59;102193.31;5049217;27;96778;-69
2022/09/22 00:17:46;;;;;;;3.75;3.08;;;;;;;15.46;58.59;102178.03;5055997;27;96986;-68
2022/09/22 00:20:13;;;;;;;3.75;2.60;;;;;;;15.34;58.90;102186.44;5054667;27;99100;-68
2022/09/22 00:22:41;;;;;;;8.18;3.22;;;;;;;15.46;58.58;102180.69;5054169;27;101037;-68
2022/09/22 00:25:09;;;;;;;4.25;2.63;;;;;;;15.31;58.86;102183.84;5054345;27;96789;-68
2022/09/22 00:27:35;;;;;;;4.50;2.60;;;;;;;15.10;59.31;102176.53;5053107;27;97156;-68
2022/09/22 00:30:02;;;;;;;4.55;3.00;;;;;;;14.99;59.73;102173.38;5054370;27;100965;-68
2022/09/22 00:32:28;;;;;;;9.55;2.72;;;;;;;15.07;59.71;102179.31;5049936;27;101811;-68
2022/09/22 00:34:54;;;;;;;5.15;3.33;;;;;;;15.00;59.52;102172.44;5052862;27;96746;-67
2022/09/22 00:37:26;;;;;;;4.32;2.65;;;;;;;14.88;60.04;102173.72;5055374;27;96665;-67
2022/09/22 00:39:53;;;;;;;5.35;3.05;;;;;;;14.75;60.62;102178.53;5052881;27;99042;-68
2022/09/22 00:42:21;;;;;;;5.15;3.00;;;;;;;14.77;60.36;102176.69;5053353;27;98864;-67
2022/09/22 00:44:47;;;;;;;6.13;2.88;;;;;;;14.57;60.98;102175.56;5052475;27;96969;-67
2022/09/22 00:47:24;;;;;;;3.10;2.63;;;;;;;14.46;61.55;102175.84;5049885;27;97778;-68
2022/09/22 00:49:58;;;;;;;5.72;3.00;;;;;;;14.58;61.11;102175.47;5050292;27;99418;-68
2022/09/22 00:52:30;;;;;;;4.63;2.85;;;;;;;14.60;60.89;102167.47;5048494;27;98274;-68
2022/09/22 00:55:03;;;;;;;4.68;2.80;;;;;;;14.39;61.49;102171.63;5052962;27;96849;-68
2022/09/22 00:57:33;;;;;;;4.50;2.92;;;;;;;14.46;61.11;102177.63;5053236;27;98923;-67
2022/09/22 01:00:02;;;;;;;4.72;3.40;;;;;;;14.32;61.55;102175.34;5052561;27;97762;-69
2022/09/22 01:02:28;;;;;;;6.07;3.03;;;;;;;14.47;60.92;102174.06;5049745;27;98941;-67
2022/09/22 01:04:55;;;;;;;7.13;3.42;;;;;;;14.43;60.85;102172.41;5050041;27;96880;-67
2022/09/22 01:07:26;;;;;;;3.42;2.75;;;;;;;14.28;61.36;102173.69;5052042;27;96853;-67
2022/09/22 01:09:54;;;;;;;5.28;2.88;;;;;;;14.41;61.21;102169.81;5052078;27;99090;-68
2022/09/22 01:12:24;;;;;;;7.32;3.38;;;;;;;14.21;61.41;102172.13;5052622;27;101307;-67
2022/09/22 01:15:05;;;;;;;4.78;2.70;;;;;;;14.30;61.31;102164.78;5052565;27;97266;-68
2022/09/22 01:17:37;;;;;;;5.97;3.22;;;;;;;14.43;60.97;102175.09;5051158;27;97603;-67
2022/09/22 01:20:49;;;;;;;6.15;3.17;;;;;;;14.70;59.79;102177.78;5053624;27;99050;-69
2022/09/22 01:24:01;;;;;;;6.30;4.00;;;;;;;14.51;60.23;102170.38;5049639;27;98885;-67
2022/09/22 01:26:59;;;;;;;6.03;3.05;;;;;;;14.44;60.54;102174.16;5049432;27;97571;-68
2022/09/22 01:29:57;;;;;;;4.50;2.80;;;;;;;14.23;60.98;102165.84;5054851;27;96817;-68
2022/09/22 01:32:31;;;;;;;4.93;2.78;;;;;;;14.34;60.72;102166.41;5045815;27;99021;-67
2022/09/22 01:35:05;;;;;;;6.70;3.20;;;;;;;14.36;60.77;102161.06;5052554;27;97729;-67
2022/09/22 01:37:41;;;;;;;5.65;2.70;;;;;;;14.30;60.76;102163.91;5051628;27;96863;-68
2022/09/22 01:40:16;;;;;;;4.80;2.57;;;;;;;14.29;61.00;102160.34;5052619;27;97010;-68
2022/09/22 01:42:48;;;;;;;6.55;3.22;;;;;;;14.19;60.98;102161.50;5049054;27;98847;-68
2022/09/22 01:45:21;;;;;;;7.75;3.25;;;;;;;14.20;61.07;102157.94;5053778;27;99601;-67
2022/09/22 01:47:53;;;;;;;4.40;2.88;;;;;;;14.11;61.18;102163.50;5052753;27;99182;-67
2022/09/22 01:50:27;;;;;;;5.18;2.92;;;;;;;14.18;60.97;102162.44;5054307;27;96772;-67
2022/09/22 01:52:57;;;;;;;5.20;3.08;;;;;;;14.16;61.15;102164.28;5051486;27;99536;-68
2022/09/22 01:55:27;;;;;;;4.82;2.72;;;;;;;14.11;61.05;102166.16;5049828;27;99288;-68
2022/09/22 01:58:00;;;;;;;4.38;2.60;;;;;;;14.09;60.98;102156.50;5051308;27;96765;-69
2022/09/22 02:00:27;;;;;;;5.15;2.83;;;;;;;13.96;61.52;102167.47;5053552;27;96800;-68
2022/09/22 02:03:00;;;;;;;4.95;3.03;;;;;;;13.98;61.63;102163.91;5051117;27;99463;-67
2022/09/22 02:05:33;;;;;;;4.07;2.95;;;;;;;13.72;62.33;102161.97;5053289;27;99275;-67
2022/09/22 02:08:07;;;;;;;4.40;2.75;;;;;;;13.78;62.05;102154.69;5051817;27;96857;-68
2022/09/22 02:10:38;;;;;;;3.97;2.95;;;;;;;13.78;62.17;102154.69;5053511;27;97013;-68
2022/09/22 02:13:04;;;;;;;4.60;2.78;;;;;;;13.76;62.16;102159.16;5052398;27;101113;-67
2022/09/22 02:18:22;;;;;;;4.35;2.53;;;;;;;13.67;62.29;102155.88;5052533;27;97187;-68
2022/09/22 02:20:49;;;;;;;4.15;2.85;;;;;;;13.70;62.23;102167.31;5048669;27;96980;-69
2022/09/22 02:23:16;;;;;;;3.28;2.47;;;;;;;13.76;61.81;102161.81;5046176;27;99436;-69
2022/09/22 02:25:44;;;;;;;3.72;2.50;;;;;;;13.70;61.84;102164.66;5052661;27;98940;-70
2022/09/22 02:28:15;;;;;;;4.50;2.25;;;;;;;13.76;61.75;102161.81;5053268;27;96918;-69
2022/09/22 02:30:44;;;;;;;5.95;2.60;;;;;;;13.65;62.01;102168.34;5052527;27;96919;-68
2022/09/22 02:33:12;;;;;;;3.33;2.38;;;;;;;13.28;63.07;102176.31;5052374;27;98321;-67
2022/09/22 02:35:46;;;;;;;2.90;2.55;;;;;;;13.51;62.37;102163.38;5049617;27;100756;-68
2022/09/22 02:38:19;;;;;;;4.47;2.60;;;;;;;13.68;61.66;102171.78;5051184;27;96768;-67
2022/09/22 02:40:52;;;;;;;4.00;2.50;;;;;;;13.70;61.44;102169.09;5050278;27;98641;-66
2022/09/22 02:43:26;;;;;;;4.55;2.35;;;;;;;13.65;61.70;102163.91;5048795;27;101381;-67
2022/09/22 02:46:04;;;;;;;3.63;2.33;;;;;;;13.55;61.97;102165.91;5049327;27;98863;-67
2022/09/22 02:48:37;;;;;;;4.43;2.65;;;;;;;13.60;61.68;102165.78;5052466;27;96710;-67
2022/09/22 02:51:05;;;;;;;2.92;2.13;;;;;;;13.63;61.62;102168.38;5050834;27;97842;-67
2022/09/22 02:53:33;;;;;;;5.70;3.17;;;;;;;13.50;61.88;102164.28;5053454;27;100729;-68
2022/09/22 02:56:00;;;;;;;4.05;2.72;;;;;;;13.42;62.09;102163.59;5052411;27;98860;-68
2022/09/22 02:58:27;;;;;;;4.32;2.50;;;;;;;13.40;62.42;102165.41;5053043;27;96741;-68
2022/09/22 03:00:53;;;;;;;4.13;1.98;;;;;;;13.32;62.11;102160.31;5049944;27;97163;-68
2022/09/22 03:03:19;;;;;;;3.65;2.80;;;;;;;13.53;61.78;102161.53;5049934;27;98942;-67
2022/09/22 03:05:46;;;;;;;4.10;1.95;;;;;;;13.40;62.02;102165.41;5051187;27;99560;-68
2022/09/22 03:08:16;;;;;;;6.78;2.15;;;;;;;13.29;62.21;102163.03;5051088;27;97735;-67
2022/09/22 03:10:43;;;;;;;2.95;2.35;;;;;;;13.55;61.48;102155.28;5051262;27;96804;-67
2022/09/22 03:13:09;;;;;;;4.43;2.15;;;;;;;13.40;61.97;102160.09;5052038;27;100487;-67
2022/09/22 03:15:37;;;;;;;2.03;1.85;;;;;;;13.27;62.20;102169.25;5049649;27;101454;-67
2022/09/22 03:18:04;;;;;;;6.93;2.50;;;;;;;13.38;61.92;102161.94;5052810;27;98733;-68
2022/09/22 03:20:31;;;;;;;7.25;3.08;;;;;;;13.57;61.19;102157.91;5051257;27;96840;-68
2022/09/22 03:22:58;;;;;;;3.42;2.03;;;;;;;13.50;61.11;102165.16;5050041;27;99318;-67
2022/09/22 03:25:26;;;;;;;5.72;2.72;;;;;;;13.46;61.31;102157.28;5049458;27;100988;-68
2022/09/22 03:27:52;;;;;;;3.92;2.50;;;;;;;13.35;61.64;102156.69;5051580;27;96866;-67
2022/09/22 03:30:18;;;;;;;3.92;2.30;;;;;;;13.35;61.35;102157.56;5051148;27;96821;-67
2022/09/22 03:32:45;;;;;;;4.60;3.05;;;;;;;13.24;61.77;102158.75;5051141;27;98954;-67
2022/09/22 03:35:11;;;;;;;5.43;2.42;;;;;;;13.18;62.06;102159.75;5050882;27;98934;-68
2022/09/22 03:37:38;;;;;;;4.13;2.30;;;;;;;13.27;61.74;102159.53;5050685;27;98710;-68
2022/09/22 03:40:05;;;;;;;2.83;2.15;;;;;;;13.20;61.91;102157.91;5051973;27;96919;-68
2022/09/22 03:42:36;;;;;;;4.43;2.13;;;;;;;13.15;62.25;102163.34;5050019;27;100838;-68
2022/09/22 03:45:04;;;;;;;3.92;2.50;;;;;;;13.07;62.32;102157.31;5051909;27;99145;-68
2022/09/22 03:47:33;;;;;;;5.13;2.35;;;;;;;13.06;62.16;102162.69;5051051;27;96775;-69
2022/09/22 03:49:59;;;;;;;3.30;2.53;;;;;;;13.18;61.94;102156.22;5048999;27;96916;-68
2022/09/22 03:52:26;;;;;;;3.50;2.38;;;;;;;13.10;61.67;102159.03;5050599;27;98768;-67
2022/09/22 03:54:55;;;;;;;4.90;2.40;;;;;;;13.04;61.88;102156.53;5046717;27;98904;-67
2022/09/22 03:57:21;;;;;;;2.90;2.40;;;;;;;13.06;61.97;102154.72;5045954;27;96733;-67
2022/09/22 03:59:49;;;;;;;4.30;3.42;;;;;;;13.15;61.66;102151.84;5051002;27;97060;-68
2022/09/22 04:02:16;;;;;;;3.92;2.03;;;;;;;13.15;61.64;102150.06;5048872;27;98792;-68
2022/09/22 04:04:42;;;;;;;4.95;2.50;;;;;;;13.15;61.57;102155.38;5050099;27;98780;-68
2022/09/22 04:07:09;;;;;;;5.85;2.22;;;;;;;13.05;61.86;102153.84;5050462;27;96879;-68
2022/09/22 04:09:35;;;;;;;7.22;2.95;;;;;;;12.97;61.83;102139.88;5051812;27;98867;-67
2022/09/22 04:12:02;;;;;;;6.63;2.60;;;;;;;13.00;61.86;102139.78;5050178;27;100146;-67
2022/09/22 04:14:29;;;;;;;5.70;2.60;;;;;;;12.93;62.06;102142.66;5051741;27;96858;-67
2022/09/22 04:16:57;;;;;;;3.05;2.42;;;;;;;12.96;61.89;102145.22;5049600;27;96826;-67
2022/09/22 04:19:24;;;;;;;3.67;2.70;;;;;;;13.04;61.51;102136.16;5048493;27;98237;-67
2022/09/22 04:21:50;;;;;;;5.35;2.70;;;;;;;12.90;61.98;102145.34;5049619;27;99120;-68
2022/09/22 04:24:17;;;;;;;7.18;2.55;;;;;;;12.85;62.05;102140.16;5050939;27;99378;-67
2022/09/22 04:26:43;;;;;;;6.10;3.15;;;;;;;12.90;62.01;102146.22;5048509;27;97868;-67
2022/09/22 04:29:09;;;;;;;3.55;2.33;;;;;;;12.83;62.21;102143.75;5052127;27;97090;-67
2022/09/22 04:31:36;;;;;;;3.08;2.17;;;;;;;12.90;62.03;102142.69;5048502;27;98850;-67
2022/09/22 04:34:06;;;;;;;3.33;2.47;;;;;;;12.73;62.35;102151.91;5045593;27;99105;-68
2022/09/22 04:36:32;;;;;;;4.07;2.55;;;;;;;13.12;61.28;102144.88;5050046;27;96868;-68
2022/09/22 04:39:03;;;;;;;3.08;2.38;;;;;;;13.00;61.32;102147.75;5050845;27;97033;-67
2022/09/22 04:41:29;;;;;;;3.35;2.38;;;;;;;13.12;60.90;102147.50;5049847;27;99990;-68
2022/09/22 04:43:56;;;;;;;6.88;2.70;;;;;;;12.98;61.22;102146.94;5050340;27;98890;-67
2022/09/22 04:46:25;;;;;;;4.28;2.65;;;;;;;12.94;61.17;102147.88;5049848;27;97159;-67
2022/09/22 04:48:52;;;;;;;5.45;3.08;;;;;;;13.13;60.51;102151.88;5050349;27;98975;-67
2022/09/22 04:51:22;;;;;;;7.18;2.85;;;;;;;13.14;60.75;102147.44;5050674;27;98973;-68
2022/09/22 04:53:51;;;;;;;6.07;3.38;;;;;;;13.27;59.95;102145.38;5050232;27;98794;-68
2022/09/22 04:56:17;;;;;;;2.92;2.50;;;;;;;13.26;60.01;102152.47;5047025;27;97164;-68
2022/09/22 04:58:43;;;;;;;5.50;2.75;;;;;;;13.35;59.67;102154.03;5054868;27;96878;-68
2022/09/22 05:01:12;;;;;;;5.38;2.83;;;;;;;13.26;60.00;102154.28;5054987;27;99248;-69
2022/09/22 05:03:40;;;;;;;18.83;10.15;;;;;;;13.00;60.93;102150.41;5052666;27;99185;-69
2022/09/22 05:06:08;;;;;;;8.70;3.35;;;;;;;13.04;60.93;102151.22;5052796;27;96741;-68
2022/09/22 05:08:35;;;;;;;13.00;2.75;;;;;;;12.90;61.29;102151.53;5049888;27;98618;-69
2022/09/22 05:11:08;;;;;;;5.90;2.90;;;;;;;13.04;60.96;102151.22;5050012;27;98964;-69
2022/09/22 05:13:34;;;;;;;9.38;3.05;;;;;;;13.11;60.88;102144.84;5049953;27;101758;-69
2022/09/22 05:16:01;;;;;;;3.67;2.53;;;;;;;13.05;60.95;102155.63;5053529;27;96762;-68
2022/09/22 05:18:28;;;;;;;7.65;3.20;;;;;;;12.99;61.13;102151.34;5050332;27;96911;-67
2022/09/22 05:20:54;;;;;;;7.00;3.17;;;;;;;12.83;61.51;102160.53;5053634;27;99518;-69
2022/09/22 05:23:23;;;;;;;6.35;2.53;;;;;;;13.11;60.86;102164.31;5053681;27;96869;-68
2022/09/22 05:25:51;;;;;;;9.68;2.97;;;;;;;13.02;60.73;102159.19;5053730;27;97732;-67
2022/09/22 05:28:19;;;;;;;7.32;2.50;;;;;;;12.96;61.27;102164.66;5053767;27;97006;-68
2022/09/22 05:30:46;;;;;;;7.35;2.90;;;;;;;13.13;60.66;102157.19;5052477;27;98884;-67
2022/09/22 05:33:12;;;;;;;4.32;2.65;;;;;;;13.22;60.47;102161.41;5053245;27;98057;-69
2022/09/22 05:35:38;;;;;;;5.38;2.28;;;;;;;13.37;60.05;102162.84;5048939;27;96782;-68
2022/09/22 05:38:07;;;;;;;6.63;2.70;;;;;;;13.19;60.52;102155.31;5051734;27;96876;-70
2022/09/22 05:40:33;;;;;;;2.75;2.55;;;;;;;13.14;60.68;102158.06;5053194;27;99264;-68
2022/09/22 05:43:04;;;;;;;9.63;2.97;;;;;;;13.17;60.45;102173.94;5052687;27;99276;-69
2022/09/22 05:45:31;;;;;;;9.48;2.88;;;;;;;13.32;60.46;102164.75;5050095;27;97321;-67
2022/09/22 05:47:59;;;;;;;3.97;2.60;;;;;;;13.33;60.40;102162.03;5054429;27;96898;-67
2022/09/22 05:50:26;;;;;;;3.83;2.55;;;;;;;13.41;60.32;102162.72;5050417;27;98622;-68
2022/09/22 05:53:02;;;;;;;5.63;2.42;;;;;;;13.62;59.62;102163.09;5052105;27;98926;-68
2022/09/22 05:55:28;;;;;;;6.00;3.10;;;;;;;13.71;59.13;102171.72;5046671;27;97003;-68
2022/09/22 05:57:57;;;;;;;7.38;2.92;;;;;;;13.68;59.30;102165.59;5049948;27;98613;-68
2022/09/22 06:00:24;;;;;;;6.28;3.40;;;;;;;13.96;58.56;102172.78;5050630;27;99832;-68
2022/09/22 06:02:51;;;;;;;5.60;3.45;;;;;;;14.40;57.63;102168.06;5047677;27;98878;-69
2022/09/22 06:05:18;;;;;;;8.57;2.95;;;;;;;14.66;56.77;102165.50;5051263;27;96777;-68
2022/09/22 06:07:44;;;;;;;4.53;2.53;;;;;;;14.69;56.04;102172.53;5050978;27;98323;-69
2022/09/22 06:10:12;;;;;;;5.03;3.00;;;;;;;14.63;55.84;102170.91;5050638;27;98821;-68
2022/09/22 06:12:39;;;;;;;17.50;7.38;;;;;;;14.98;55.31;102163.63;5053010;27;98836;-68
2022/09/22 06:15:07;;;;;;;13.10;5.90;;;;;;;15.06;55.33;102170.47;5047338;27;97460;-71
2022/09/22 06:17:35;;;;;;;10.43;4.97;;;;;;;15.06;55.38;102169.59;5050644;27;97544;-69
2022/09/22 06:20:04;;;;;;;12.63;6.60;;;;;;;15.05;55.89;102166.06;5042307;27;101652;-68
2022/09/22 06:22:40;;;;;;;16.70;8.07;;;;;;;15.00;55.53;102175.09;5050076;27;98240;-68
2022/09/22 06:25:08;;;;;;;15.13;7.15;;;;;;;15.08;55.28;102173.97;5046898;27;99806;-69
2022/09/22 06:27:34;;;;;;;13.73;6.90;;;;;;;15.43;54.63;102171.91;5047398;27;97214;-69
2022/09/22 06:30:01;;;;;;;10.20;5.57;;;;;;;15.20;54.55;102178.00;5053359;27;99252;-67
2022/09/22 06:32:27;;;;;;;11.95;4.85;;;;;;;15.15;54.60;102178.16;5052745;27;98806;-69
2022/09/22 06:35:01;;;;;;;7.13;4.00;;;;;;;15.23;54.47;102177.06;5052949;27;96778;-68
2022/09/22 06:37:32;;;;;;;14.73;2.35;;;;;;;15.72;53.57;102176.31;5044150;27;98060;-68
2022/09/22 06:40:00;;;;;;;7.97;3.70;;;;;;;15.52;54.04;102180.53;5047818;27;99330;-69
2022/09/22 06:42:32;;;;;;;6.43;3.28;;;;;;;15.66;53.48;102172.06;5047835;27;98660;-69
2022/09/22 06:45:08;;;;;;;5.72;2.97;;;;;;;15.72;53.19;102174.53;5045776;27;97023;-70
2022/09/22 06:47:40;;;;;;;5.93;3.22;;;;;;;15.86;53.10;102171.38;5047876;27;97072;-68
2022/09/22 06:50:12;;;;;;;5.72;3.13;;;;;;;15.93;53.57;102175.59;5045664;27;99091;-69
2022/09/22 06:52:40;;;;;;;8.23;4.30;;;;;;;16.15;53.11;102181.00;5049259;27;99528;-68
2022/09/22 06:55:09;;;;;;;7.13;3.55;;;;;;;16.27;53.10;102170.78;5049598;27;97555;-70
2022/09/22 06:57:36;;;;;;;10.70;4.13;;;;;;;16.18;52.94;102175.56;5051669;27;96942;-69
2022/09/22 07:00:06;;;;;;;7.20;3.92;;;;;;;16.17;52.55;102173.81;5050084;27;99377;-69
2022/09/22 07:02:34;;;;;;;11.82;3.33;;;;;;;16.17;52.86;102174.69;5052979;27;98488;-69
2022/09/22 07:05:02;;;;;;;11.85;3.25;;;;;;;16.64;51.60;102175.63;5052904;27;96723;-71
2022/09/22 07:07:32;;;;;;;3.38;2.70;;;;;;;16.79;50.81;102178.66;5053296;27;97050;-69
2022/09/22 07:09:59;;;;;;;7.90;2.75;;;;;;;16.85;50.64;102178.41;5052597;27;99743;-68
2022/09/22 07:12:25;;;;;;;6.43;2.67;;;;;;;16.89;50.28;102172.00;5052347;27;99213;-68
2022/09/22 07:14:54;;;;;;;5.63;2.33;;;;;;;16.94;49.71;102181.56;5052651;27;96758;-70
2022/09/22 07:17:22;;;;;;;5.63;2.78;;;;;;;17.10;49.35;102184.53;5052553;27;96986;-69
2022/09/22 07:19:50;;;;;;;11.13;3.22;;;;;;;17.15;49.80;102182.53;5051119;27;99280;-69
2022/09/22 07:22:22;;;;;;;10.25;3.28;;;;;;;17.09;49.55;102182.78;5049472;27;100713;-70
2022/09/22 07:24:49;;;;;;;5.90;2.92;;;;;;;17.32;49.28;102187.22;5052583;27;96788;-68
2022/09/22 07:27:17;;;;;;;6.93;2.72;;;;;;;17.34;49.19;102180.84;5050340;27;96825;-69
2022/09/22 07:29:46;;;;;;;8.15;2.65;;;;;;;17.60;48.19;102179.78;5052421;27;100798;-69
2022/09/22 07:32:14;;;;;;;7.65;2.38;;;;;;;17.55;48.50;102176.44;5052454;27;97651;-69
2022/09/22 07:34:40;;;;;;;5.32;2.40;;;;;;;17.50;47.88;102179.31;5052011;27;96657;-71
2022/09/22 07:37:11;;;;;;;4.35;1.98;;;;;;;17.38;48.75;102173.59;5050254;27;97180;-69
2022/09/22 07:39:37;;;;;;;8.20;2.38;;;;;;;17.35;48.69;102176.38;5052174;27;99229;-69
2022/09/22 07:42:05;;;;;;;3.95;2.30;;;;;;;17.69;48.09;102167.84;5052236;27;100024;-70
2022/09/22 07:48:34;;;;;;;7.60;3.20;;;;;;;17.81;47.84;102173.53;5052395;27;96728;-68
2022/09/22 07:50:03;;;;;;;;;;;;;;;18.19;47.05;102166.50;5050965;27;98547;-69
2022/09/22 07:52:30;;;;;;;6.65;2.17;;;;;;;18.20;47.07;102165.56;5052679;27;97689;-69
2022/09/22 07:54:56;;;;;;;5.35;2.25;;;;;;;18.18;46.70;102174.63;5051898;27;96821;-68
2022/09/22 07:57:26;;;;;;;4.63;2.28;;;;;;;18.15;46.72;102172.94;5045960;27;96800;-67
2022/09/22 07:59:52;;;;;;;5.25;2.00;;;;;;;18.63;45.54;102167.22;5049040;27;97119;-69
2022/09/22 08:02:25;;;;;;;3.97;2.10;;;;;;;18.96;45.49;102171.91;5035580;27;98749;-68
2022/09/22 08:04:52;;;;;;;3.30;2.15;;;;;;;19.62;43.95;102166.88;5042576;27;96953;-69
2022/09/22 08:07:22;;;;;;;6.88;2.40;;;;;;;19.52;43.93;102170.94;5045531;27;97116;-69
2022/09/22 08:09:49;;;;;;;10.45;2.40;;;;;;;19.76;43.57;102177.75;5042962;27;101516;-70
2022/09/22 08:12:17;;;;;;;7.10;2.10;;;;;;;20.19;42.73;102182.63;5046030;27;99076;-70
2022/09/22 08:14:47;;;;;;;7.00;2.50;;;;;;;19.66;43.42;102179.16;5038788;27;97113;-69
2022/09/22 08:17:13;;;;;;;4.47;1.50;;;;;;;20.40;41.77;102177.09;5051096;27;96871;-68
2022/09/22 08:19:40;;;;;;;3.47;1.70;;;;;;;20.34;41.57;102177.44;5043138;27;99095;-68
2022/09/22 08:22:07;;;;;;;2.63;1.45;;;;;;;20.02;41.62;102179.09;5050138;27;99078;-73
2022/09/22 08:24:34;;;;;;;6.03;1.67;;;;;;;19.88;40.96;102179.81;5036174;27;97189;-69
2022/09/22 08:27:00;;;;;;;3.50;1.13;;;;;;;19.98;41.60;102175.69;5047085;27;96886;-69
2022/09/22 08:29:26;;;;;;;3.38;1.33;;;;;;;20.03;41.80;102181.69;5045117;27;99176;-69
2022/09/22 08:31:55;;;;;;;3.90;1.23;;;;;;;19.87;41.01;102172.72;5048647;27;99286;-68
2022/09/22 08:34:22;;;;;;;4.68;1.50;;;;;;;19.99;40.52;102176.56;5051913;27;96762;-71
2022/09/22 08:36:49;;;;;;;2.92;0.98;;;;;;;19.74;41.12;102179.66;5047618;27;96976;-69
2022/09/22 08:39:16;;;;;;;2.58;1.40;;;;;;;20.03;41.03;102187.06;5042240;27;98858;-71
2022/09/22 08:41:54;;;;;;;4.45;1.33;;;;;;;20.09;40.22;102188.53;5048496;27;98750;-69
2022/09/22 08:44:24;;;;;;;3.25;1.00;;;;;;;20.19;39.54;102188.00;5046711;27;97424;-68
2022/09/22 08:46:58;;;;;;;1.73;1.02;;;;;;;20.13;39.00;102192.81;5053217;27;96903;-68
2022/09/22 08:52:24;;;;;;;2.88;0.90;;;;;;;19.66;39.63;102190.75;5046737;27;96970;-69
2022/09/22 08:54:58;;;;;;;4.00;1.00;;;;;;;19.93;39.17;102193.84;5048330;27;97218;-69
2022/09/22 08:57:55;;;;;;;3.95;1.00;;;;;;;20.11;37.82;102187.53;5049162;27;96756;-69
2022/09/22 09:00:22;;;;;;;;;;;;;;;20.03;37.95;102189.72;5051613;27;101520;-70
2022/09/22 09:02:58;;;;;;;4.03;1.15;;;;;;;19.95;38.65;102189.28;5048057;27;99183;-69
2022/09/22 09:05:49;;;;;;;6.25;1.30;;;;;;;20.03;38.55;102181.69;5047944;27;96893;-69
2022/09/22 09:08:34;;;;;;;1.92;0.68;;;;;;;20.42;37.34;102183.22;5053645;27;96740;-69
2022/09/22 09:11:13;;;;;;;2.55;1.20;;;;;;;20.32;37.44;102179.28;5051055;27;99932;-69
2022/09/22 09:13:52;;;;;;;1.98;0.80;;;;;;;20.42;37.12;102180.53;5050729;27;98591;-69
2022/09/22 09:16:33;;;;;;;1.67;0.70;;;;;;;20.71;37.37;102177.16;5049888;27;96739;-69
2022/09/22 09:19:10;;;;;;;3.05;0.73;;;;;;;20.75;36.99;102175.16;5048197;27;96885;-69
2022/09/22 09:21:42;;;;;;;2.72;1.08;;;;;;;20.51;37.39;102174.69;5052007;27;98236;-69
2022/09/22 09:24:15;;;;;;;1.23;0.60;;;;;;;20.95;35.49;102170.41;5048198;27;101746;-69
2022/09/22 09:26:45;;;;;;;1.02;0.50;;;;;;;21.11;35.86;102174.91;5051746;27;96715;-69
2022/09/22 09:29:20;;;;;;;2.13;0.60;;;;;;;21.03;34.99;102175.34;5050674;27;96785;-69
2022/09/22 09:31:50;;;;;;;1.88;0.63;;;;;;;20.72;36.21;102170.81;5051610;27;101367;-69
2022/09/22 09:34:21;;;;;;;2.47;0.70;;;;;;;20.64;36.69;102173.94;5049494;27;100127;-68
2022/09/22 09:36:54;;;;;;;1.33;0.68;;;;;;;20.92;36.12;102165.22;5052975;27;97183;-70
2022/09/22 09:39:29;;;;;;;0.95;0.52;;;;;;;20.69;36.17;102168.28;5048194;27;97241;-69
2022/09/22 09:41:57;;;;;;;3.67;0.80;;;;;;;20.78;36.75;102167.81;5047432;27;99928;-70
2022/09/22 09:44:28;;;;;;;3.13;0.65;;;;;;;20.79;36.09;102164.16;5046601;27;98856;-69
2022/09/22 09:47:03;;;;;;;2.55;1.52;;;;;;;20.50;36.82;102163.06;5049401;27;98134;-68
2022/09/22 09:49:31;;;;;;;13.10;6.53;;;;;;;20.84;35.95;102167.44;5049636;27;96935;-69
2022/09/22 09:52:01;;;;;;;13.98;7.43;;;;;;;20.67;36.47;102160.34;5050278;27;99220;-69
2022/09/22 09:54:33;;;;;;;5.97;2.47;;;;;;;20.69;36.27;102163.78;5045670;27;98736;-69
2022/09/22 09:57:07;;;;;;;6.50;3.20;;;;;;;20.65;36.01;102156.00;5047915;27;97096;-70
2022/09/22 10:02:26;;;;;;;6.43;2.78;;;;;;;20.53;36.30;102156.69;5044782;27;97193;-69
2022/09/22 10:04:56;;;;;;;5.28;1.02;;;;;;;20.42;36.06;102157.25;5036970;27;98020;-69
2022/09/22 10:07:26;;;;;;;1.35;0.60;;;;;;;19.77;36.77;102158.91;5049020;27;97128;-70
2022/09/22 10:09:54;;;;;;;5.97;1.48;;;;;;;19.84;36.63;102157.63;5045926;27;97558;-68
2022/09/22 10:12:32;;;;;;;3.28;1.02;;;;;;;19.77;36.80;102163.38;5051648;27;101915;-69
2022/09/22 10:15:02;;;;;;;6.78;0.98;;;;;;;20.01;36.50;102162.13;5045869;27;98963;-69
2022/09/22 10:17:32;;;;;;;1.67;0.80;;;;;;;20.41;36.14;102160.03;5052073;27;96814;-69
2022/09/22 10:20:25;;;;;;;4.25;1.00;;;;;;;20.55;35.03;102160.13;5044017;27;96931;-69
2022/09/22 10:22:53;;;;;;;5.57;1.23;;;;;;;20.55;35.67;102162.81;5048100;27;100208;-69
2022/09/22 10:25:23;;;;;;;8.02;1.70;;;;;;;20.65;36.07;102164.06;5049869;27;99525;-70
2022/09/22 10:28:01;;;;;;;2.53;0.77;;;;;;;20.38;36.34;102158.38;5050201;27;96739;-69
2022/09/22 10:30:32;;;;;;;3.78;0.60;;;;;;;20.21;37.09;102150.34;5049531;27;97437;-70
2022/09/22 10:33:15;;;;;;;2.95;0.73;;;;;;;20.01;37.27;102159.44;5046297;27;98923;-69
2022/09/22 10:35:46;;;;;;;2.80;0.70;;;;;;;19.90;38.11;102157.31;5047123;27;99407;-70
2022/09/22 10:38:19;;;;;;;1.30;0.63;;;;;;;19.84;37.18;102152.28;5050297;27;97865;-69
2022/09/22 10:40:54;;;;;;;2.88;0.77;;;;;;;19.85;37.56;102156.69;5050771;27;96769;-69
2022/09/22 10:43:39;;;;;;;3.50;0.70;;;;;;;19.87;37.66;102153.94;5048583;27;99478;-69
2022/09/22 10:46:19;;;;;;;3.42;0.80;;;;;;;19.87;37.37;102148.56;5047934;27;98771;-69
2022/09/22 10:48:48;;;;;;;1.58;0.90;;;;;;;19.73;37.50;102160.00;5050701;27;96767;-69
2022/09/22 10:51:34;;;;;;;1.50;0.80;;;;;;;19.87;37.62;102152.13;5047843;27;96750;-69
2022/09/22 10:54:25;;;;;;;5.32;0.98;;;;;;;20.17;35.40;102148.75;5048013;27;99155;-68
2022/09/22 10:56:54;;;;;;;2.30;0.90;;;;;;;20.29;35.72;102154.34;5050808;27;97685;-69
2022/09/22 10:59:46;;;;;;;2.40;0.68;;;;;;;20.56;34.45;102157.38;5050712;27;97691;-69
2022/09/22 11:02:45;;;;;;;3.13;0.57;;;;;;;20.95;32.77;102148.91;5048692;27;97244;-68
2022/09/22 11:14:18;;;;;;;4.65;0.50;;;;;;;20.51;31.43;102140.66;5017828;27;97159;-69
2022/09/22 11:17:17;;;;;;;1.55;0.38;;;;;;;20.64;31.19;102138.16;5051439;27;99019;-69
2022/09/22 11:20:01;;;;;;;4.45;0.80;;;;;;;20.33;32.01;102143.47;5050166;27;97667;-69
2022/09/22 11:22:43;;;;;;;1.65;0.75;;;;;;;20.55;33.10;102138.66;5047046;27;97141;-69
2022/09/22 11:25:25;;;;;;;1.65;0.55;;;;;;;20.18;34.71;102135.25;5049867;27;96822;-68
2022/09/22 11:28:07;;;;;;;4.10;0.60;;;;;;;20.08;35.66;102134.03;5046539;27;99674;-69
2022/09/22 11:30:43;;;;;;;1.33;0.82;;;;;;;20.25;35.40;102131.31;5045002;27;101631;-69
2022/09/22 11:33:39;;;;;;;1.73;0.50;;;;;;;19.98;34.58;102127.41;5049160;27;96802;-69
2022/09/22 11:36:20;;;;;;;2.78;0.40;;;;;;;19.93;35.31;102124.09;5041232;27;96967;-70
2022/09/22 11:39:08;;;;;;;1.92;0.70;;;;;;;20.00;35.84;102113.91;5046973;27;99039;-70
2022/09/22 11:41:41;;;;;;;2.85;0.70;;;;;;;19.66;36.87;102114.81;5046794;27;99437;-70
2022/09/22 11:44:32;;;;;;;2.60;0.40;;;;;;;20.17;35.08;102117.41;5045298;27;97159;-70
2022/09/22 11:47:14;;;;;;;4.97;0.77;;;;;;;20.25;35.46;102115.19;5043508;27;96912;-69
2022/09/22 11:49:54;;;;;;;1.83;0.40;;;;;;;20.38;34.59;102111.88;5040861;27;100577;-69
2022/09/22 11:52:30;;;;;;;3.50;0.80;;;;;;;20.88;33.86;102109.03;5046152;27;99009;-70
2022/09/22 11:55:10;;;;;;;7.50;0.77;;;;;;;20.83;33.50;102101.25;5047745;27;97620;-69
2022/09/22 11:57:44;;;;;;;2.88;0.63;;;;;;;21.00;33.52;102105.66;5050144;27;96872;-69
2022/09/22 12:00:15;;;;;;;0.70;0.40;;;;;;;20.90;32.27;102107.13;5049070;27;99062;-69
2022/09/22 12:02:48;;;;;;;0.95;0.50;;;;;;;20.93;32.47;102101.59;5047685;27;101863;-70